Aeroporto :
LOGIN :

Iscrizione | Disclaimer

   EN    FR    IT 

 










Sommario :    VFR   VFR Marginale   IFR   IFR Intensivo   IFR Molto Intensivo
Visibilità : 
Base nubi : 
>= 8 km
>= 3000ft
5 / 8 km
1000 / 3000 ft
1500m / 5 km
500 / 1000 ft
800 / 1500m
200 / 500 ft
< 800m
< 200 ft
Simboli :   Temporali  Nebbia  Neve Forte  Precipitazioni Forti  Vento > 20 kt
SIGMETs :   Varie  Temporali  Ghiacco  Turbolenza  Onda orograficha  Ceneri Vulcaniche






- Altitudine del aeroporto : 354 ft
- Codice IATA : OER


ESNO - Örnsköldsvik

ULTIMO METAR :
  • 271550Z AUTO 31015KT 290V350 9999 NCD 16/M02 Q1022

METARs OBSOLETI :
  • 271520Z 30013KT CAVOK 16/M01 Q1022
  • 271450Z 30016KT CAVOK 17/M02 Q1021
  • 271420Z 33015KT CAVOK 16/M02 Q1021
  • 271350Z 30015KT 270V330 CAVOK 16/M02 Q1021
  • 271320Z 29014KT 270V330 CAVOK 16/M01 Q1022
  • 271250Z AUTO 29014KT 9999 SCT160/// 16/M01 Q1022

TAF TAF ESNO
Valido dal 27 a 15 ore il 27 a 17 ore UTC


271430Z 2715/2717 30012KT CAVOK



MetMap, La meteo Aeronautica in un colpo d'occhio ! - Copyright ORBIFLY Dicembre 2007 - Disclaimer

ORBIFLY MET'MAP TEAM :

Programmazione e sviluppo : Alexandra Zaïnal
Concezione : Baudouin d'Aumeries
Aiuto per la programmazione : Marc-Olivier Méhu
Supporto tecnico e logistico : Manuel Goepfert
Aiuto per la traduzione : Arnaldo La Scala

Contatto : metmap@orbifly.com




FONTI E CREDITI :

   NOAA